Weather reports worldwide

Advertisment
Hoek van Holland, Netherlands (6330): temperature & dewpoint: 07.08.2020 01:00:00 - 13.08.2020 01:00:00 (CEST)Hoek van Holland, Netherlands (6330): temperature 5cm: 07.08.2020 01:00:00 - 13.08.2020 01:00:00 (CEST)Hoek van Holland, Netherlands (6330): wind speed & gusts: 07.08.2020 01:00:00 - 13.08.2020 01:00:00 (CEST)Hoek van Holland, Netherlands (6330): wind direction: 07.08.2020 01:00:00 - 13.08.2020 01:00:00 (CEST)Hoek van Holland, Netherlands (6330): reduced air pressure: 07.08.2020 01:00:00 - 13.08.2020 01:00:00 (CEST)Hoek van Holland, Netherlands (6330): precipitation: 07.08.2020 01:00:00 - 13.08.2020 01:00:00 (CEST)
Date & Time tt [°C] td [°C] tt 5cm [°C] ff [km/h] ff [kn] fx [km/h] fx [kn] dd ppp [hPa] rr [mm]
13.08.2020 01:00:00 - - - - - - - - - -
13.08.2020 00:00:00 - - - - - - - - - -
12.08.2020 23:00:00 - - - - - - - - - -
12.08.2020 22:00:00 - - - - - - - - - -
12.08.2020 21:00:00 - - - - - - - - - -
12.08.2020 20:00:00 - - - - - - - - - -
12.08.2020 19:00:00 - - - - - - - - - -
12.08.2020 18:00:00 - - - - - - - - - -
12.08.2020 17:00:00 - - - - - - - - - -
12.08.2020 16:00:00 - - - - - - - - - -
12.08.2020 15:00:00 - - - - - - - - - -
12.08.2020 14:00:00 - - - - - - - - - -
12.08.2020 13:00:00 - - - - - - - - - -
12.08.2020 12:00:00 - - - - - - - - - -
12.08.2020 11:00:00 - - - - - - - - - -
12.08.2020 10:00:00 - - - - - - - - - -
12.08.2020 09:00:00 - - - - - - - - - -
12.08.2020 08:00:00 - - - - - - - - - -
12.08.2020 07:00:00 - - - - - - - - - -
12.08.2020 06:00:00 - - - - - - - - - -
12.08.2020 05:00:00 - - - - - - - - - -
12.08.2020 04:00:00 - - - - - - - - - -
12.08.2020 03:00:00 - - - - - - - - - -
12.08.2020 02:00:00 - - - - - - - - - -
12.08.2020 01:00:00 - - - - - - - - - -
12.08.2020 00:00:00 - - - - - - - - - -
11.08.2020 23:00:00 - - - - - - - - - -
11.08.2020 22:00:00 - - - - - - - - - -
11.08.2020 21:00:00 - - - - - - - - - -
11.08.2020 20:00:00 - - - - - - - - - -
11.08.2020 19:00:00 - - - - - - - - - -
11.08.2020 18:00:00 - - - - - - - - - -
11.08.2020 17:00:00 - - - - - - - - - -
11.08.2020 16:00:00 - - - - - - - - - -
11.08.2020 15:00:00 - - - - - - - - - -
11.08.2020 14:00:00 - - - - - - - - - -
11.08.2020 13:00:00 - - - - - - - - - -
11.08.2020 12:00:00 - - - - - - - - - -
11.08.2020 11:00:00 - - - - - - - - - -
11.08.2020 10:00:00 - - - - - - - - - -
11.08.2020 09:00:00 - - - - - - - - - -
11.08.2020 08:00:00 - - - - - - - - - -
11.08.2020 07:00:00 - - - - - - - - - -
11.08.2020 06:00:00 - - - - - - - - - -
11.08.2020 05:00:00 - - - - - - - - - -
11.08.2020 04:00:00 - - - - - - - - - -
11.08.2020 03:00:00 - - - - - - - - - -
11.08.2020 02:00:00 - - - - - - - - - -
11.08.2020 01:00:00 - - - - - - - - - -
11.08.2020 00:00:00 - - - - - - - - - -
10.08.2020 23:00:00 - - - - - - - - - -
10.08.2020 22:00:00 - - - - - - - - - -
10.08.2020 21:00:00 - - - - - - - - - -
10.08.2020 20:00:00 - - - - - - - - - -
10.08.2020 19:00:00 - - - - - - - - - -
10.08.2020 18:00:00 - - - - - - - - - -
10.08.2020 17:00:00 - - - - - - - - - -
10.08.2020 16:00:00 - - - - - - - - - -
10.08.2020 15:00:00 - - - - - - - - - -
10.08.2020 14:00:00 - - - - - - - - - -
10.08.2020 13:00:00 - - - - - - - - - -
10.08.2020 12:00:00 - - - - - - - - - -
10.08.2020 11:00:00 - - - - - - - - - -
10.08.2020 10:00:00 - - - - - - - - - -
10.08.2020 09:00:00 - - - - - - - - - -
10.08.2020 08:00:00 22,3 17,5 21,6 14 8 - - E 1014,5 -
10.08.2020 07:00:00 21,5 17,6 20,7 14 8 18 10 ENE 1014,5 0,0
10.08.2020 06:00:00 21,1 17,7 20,5 7 4 14 8 E 1014,6 0,0
10.08.2020 05:00:00 21,5 17,5 20,9 14 8 25 14 ESE 1014,6 0,0
10.08.2020 04:00:00 22,1 17,4 21,5 18 10 25 14 E 1015,1 0,0
10.08.2020 03:00:00 22,9 17,8 21,8 11 6 22 12 ENE 1014,9 0,0
10.08.2020 02:00:00 23,7 17,6 22,5 14 8 18 10 NE 1014,8 0,0
10.08.2020 01:00:00 24,7 17,3 23,4 14 8 22 12 NE 1015,1 0,0
10.08.2020 00:00:00 25,5 17,3 24,4 14 8 25 14 NE 1015,2 0,0
09.08.2020 23:00:00 26,6 17,1 25,6 29 16 36 19 ENE 1015,3 0,0
09.08.2020 22:00:00 27,2 18,0 25,8 22 12 25 14 NE 1015,2 0,0
09.08.2020 21:00:00 28,4 17,8 27,4 22 12 25 14 NE 1015,0 0,0
09.08.2020 20:00:00 27,4 20,1 26,7 22 12 29 16 NNE 1014,9 0,0
09.08.2020 19:00:00 27,4 20,3 29,1 22 12 29 16 NNE 1014,9 0,0
09.08.2020 18:00:00 27,6 20,2 30,6 29 16 29 16 NNE 1015,4 0,0
09.08.2020 17:00:00 29,1 20,6 32,2 29 16 32 18 NNE 1015,7 0,0
09.08.2020 16:00:00 28,0 20,6 31,8 29 16 32 18 N 1016,2 0,0
09.08.2020 15:00:00 27,3 20,6 30,3 29 16 32 18 N 1016,5 0,0
09.08.2020 14:00:00 28,6 20,5 31,8 29 16 36 19 NNE 1016,9 0,0
09.08.2020 13:00:00 27,1 20,5 30,4 25 14 32 18 NNE 1017,1 0,0
09.08.2020 12:00:00 26,4 20,5 29,7 25 14 25 14 NNE 1017,6 0,0
09.08.2020 11:00:00 25,5 20,7 27,9 22 12 22 12 NNE 1017,8 0,0
09.08.2020 10:00:00 24,3 20,3 25,0 18 10 22 12 NNE 1018,2 0,0
09.08.2020 09:00:00 22,0 19,8 23,0 18 10 18 10 NNE 1018,4 0,0
09.08.2020 08:00:00 21,3 19,7 20,7 11 6 14 8 NNE 1018,3 0,0
09.08.2020 07:00:00 20,3 19,3 19,3 11 6 14 8 NE 1018,1 0,0
09.08.2020 06:00:00 21,1 18,4 19,3 7 4 11 6 NE 1017,9 0,0
09.08.2020 05:00:00 21,2 18,5 19,6 18 10 22 12 NE 1018,0 0,0
09.08.2020 04:00:00 22,7 18,1 20,5 7 4 7 4 ESE 1018,1 0,0
09.08.2020 03:00:00 24,2 18,2 21,8 11 6 14 8 E 1018,2 0,0
09.08.2020 02:00:00 24,3 17,7 21,2 11 6 14 8 ENE 1018,2 0,0
09.08.2020 01:00:00 24,6 17,1 21,5 11 6 14 8 NE 1018,5 0,0
09.08.2020 00:00:00 25,9 16,0 24,2 11 6 18 10 NE 1018,3 0,0
08.08.2020 23:00:00 26,1 15,0 23,0 18 10 22 12 ENE 1018,4 0,0
08.08.2020 22:00:00 25,0 18,2 22,6 14 8 18 10 NE 1018,8 0,3
08.08.2020 21:00:00 25,6 17,5 23,7 22 12 29 16 NE 1018,4 0,0
08.08.2020 20:00:00 26,8 15,3 25,9 18 10 29 16 NNE 1018,6 0,0
08.08.2020 19:00:00 26,9 16,4 27,0 18 10 18 10 NNE 1018,6 0,0
08.08.2020 18:00:00 26,3 17,3 27,3 14 8 18 10 NNE 1018,9 0,0
08.08.2020 17:00:00 25,7 16,6 27,4 22 12 25 14 NNE 1019,1 0,0
08.08.2020 16:00:00 25,5 18,2 27,7 22 12 25 14 NNE 1019,3 0,0
08.08.2020 15:00:00 27,1 17,6 29,6 25 14 32 18 N 1019,2 0,0
08.08.2020 14:00:00 29,8 17,5 31,9 25 14 25 14 N 1019,2 0,0
08.08.2020 13:00:00 30,5 18,5 34,7 11 6 14 8 N 1019,2 0,0
08.08.2020 12:00:00 30,8 18,2 33,4 4 2 7 4 N 1019,2 0,0
08.08.2020 11:00:00 32,1 16,5 33,5 4 2 4 2 NNE 1019,3 0,0
08.08.2020 10:00:00 29,4 17,1 30,1 0 0 7 4 N 1019,4 0,0
08.08.2020 09:00:00 26,6 16,8 25,8 7 4 11 6 SE 1019,3 0,0
08.08.2020 08:00:00 22,9 17,3 20,7 11 6 14 8 ESE 1019,0 0,0
08.08.2020 07:00:00 19,9 16,2 17,2 11 6 11 6 SE 1018,8 0,0
08.08.2020 06:00:00 18,3 16,0 14,6 0 0 4 2 N 1018,6 0,0
08.08.2020 05:00:00 19,1 16,0 15,1 0 0 4 2 N 1018,6 0,0
08.08.2020 04:00:00 18,4 16,4 15,4 7 4 7 4 E 1018,4 0,0
08.08.2020 03:00:00 19,0 16,3 15,6 4 2 7 4 E 1018,6 0,0
08.08.2020 02:00:00 20,3 16,5 16,2 4 2 7 4 E 1018,5 0,0
08.08.2020 01:00:00 21,1 16,4 16,7 7 4 11 6 E 1018,6 0,0
08.08.2020 00:00:00 21,7 16,0 17,3 11 6 14 8 ESE 1018,3 0,0
07.08.2020 23:00:00 22,3 15,8 18,5 14 8 22 12 ENE 1018,6 0,0
07.08.2020 22:00:00 22,9 17,2 21,1 18 10 18 10 NE 1018,8 0,0
07.08.2020 21:00:00 23,2 19,6 22,3 11 6 14 8 N 1018,5 0,0
07.08.2020 20:00:00 24,8 20,0 24,9 11 6 11 6 NNW 1018,3 0,0
07.08.2020 19:00:00 27,3 18,1 28,9 7 4 11 6 N 1018,2 0,0
07.08.2020 18:00:00 27,7 18,2 30,6 7 4 11 6 N 1018,5 0,0
07.08.2020 17:00:00 27,8 17,6 31,1 11 6 14 8 NNW 1018,7 0,0
07.08.2020 16:00:00 28,4 19,2 32,3 14 8 14 8 NNW 1018,9 0,0
07.08.2020 15:00:00 29,7 17,4 33,3 11 6 14 8 NNW 1019,0 0,0
07.08.2020 14:00:00 29,7 18,5 33,8 7 4 11 6 N 1019,1 0,0
07.08.2020 13:00:00 30,0 19,1 34,0 4 2 7 4 SSW 1019,4 0,0
07.08.2020 12:00:00 31,2 17,3 33,2 4 2 7 4 S 1019,5 0,0
07.08.2020 11:00:00 29,2 17,3 30,6 7 4 7 4 SE 1019,6 0,0
07.08.2020 10:00:00 27,5 18,0 28,4 11 6 14 8 SSE 1019,6 0,0
07.08.2020 09:00:00 24,7 17,1 24,6 11 6 14 8 SE 1019,4 0,0
07.08.2020 08:00:00 21,7 17,1 19,8 14 8 18 10 ESE 1019,2 0,0
07.08.2020 07:00:00 18,9 16,3 17,5 11 6 18 10 ESE 1019,0 0,0
07.08.2020 06:00:00 18,3 16,3 17,4 11 6 14 8 SE 1018,7 0,0
07.08.2020 05:00:00 18,7 16,6 17,8 14 8 18 10 ESE 1018,6 0,0
07.08.2020 04:00:00 19,4 16,9 18,5 18 10 22 12 ESE 1018,7 0,0
07.08.2020 03:00:00 19,4 17,1 18,7 22 12 25 14 ESE 1018,9 0,0
07.08.2020 02:00:00 19,5 16,9 18,6 14 8 18 10 ESE 1019,1 0,0
07.08.2020 01:00:00 20,3 17,0 18,7 4 2 7 4 NE 1019,2 0,0

tt = temperature
td = dewpoint
tt 5cm = temperature 5cm
ff = wind speed
fx = gusts
dd = wind direction
ppp = reduced air pressure
rr = precipitation

Next stations